Newbern, Virginia
Current Conditions -  °F | °C
As of 1:55 PM on Tuesday 27 Jan 2015 (Local Time) from KPSK Reporting Station
Clear Clear  
Wind Chill: 27°   Ceiling: Unl
Heat Index: 36°   Visibility: 10mi
Dew Point:   Wind: 14mph
Humidity: 32%   Direction: 290°WNW
Pressure: 29.81"   Gusts: NA
Location:  37.07°N, 80.69°W
Report Text: KPSK 271855Z AUTO 29012KT 10SM CLR 02/M13 A2981 RMK AO2 T00201133
Loading
Personal Weather Stations






























Interactive Weather Map New forecast layout! Learn more

10-Day Weather Forecast

Advertisements
Track Severe Weather on mobile